Time;durP1;ratioP1;P1;durP2;ratioP2;P2;SDS_P1;SDS_P2;PMS_P1;PMS_P2;Temp;Humidity;BMP_temperature;BMP_pressure;BME280_temperature;BME280_humidity;BME280_pressure;Samples;Min_cycle;Max_cycle;Signal;HPM_P1;HPM_P2
2023/10/22 00:02:13;;;;;;;;;;;13.20;99.90;;;;;;2615345;47;19951;-73
2023/10/22 00:04:43;;;;;;;;;;;13.10;99.90;;;;;;2613951;47;19939;-72
2023/10/22 00:07:14;;;;;;;;;;;13.10;99.90;;;;;;2617354;47;19934;-74
2023/10/22 00:09:43;;;;;;;;;;;13.00;99.90;;;;;;2616665;54;19950;-73
2023/10/22 00:12:13;;;;;;;;;;;13.00;99.90;;;;;;2616198;54;19941;-73
2023/10/22 00:14:45;;;;;;;;;;;13.00;99.90;;;;;;2613424;54;19950;-74
2023/10/22 00:17:15;;;;;;;;;;;12.90;99.90;;;;;;2616549;54;20018;-74
2023/10/22 00:19:45;;;;;;;;;;;12.90;99.90;;;;;;2615748;47;19963;-73
2023/10/22 00:22:16;;;;;;;;;;;12.80;99.90;;;;;;2616216;50;19950;-73
2023/10/22 00:24:46;;;;;;;;;;;12.70;99.90;;;;;;2615287;47;19998;-73
2023/10/22 00:27:16;;;;;;;;;;;12.60;99.90;;;;;;2615264;47;19946;-73
2023/10/22 00:29:48;;;;;;;;;;;12.60;99.90;;;;;;2616040;47;19954;-74
2023/10/22 00:32:18;;;;;;;;;;;12.60;99.90;;;;;;2616524;54;19946;-73
2023/10/22 00:34:47;;;;;;;;;;;12.50;99.90;;;;;;2614307;54;20471;-72
2023/10/22 00:37:17;;;;;;;;;;;12.50;99.90;;;;;;2616058;47;19942;-73
2023/10/22 00:39:46;;;;;;;;;;;12.40;99.90;;;;;;2616299;47;19953;-73
2023/10/22 00:42:16;;;;;;;;;;;12.40;99.90;;;;;;2615363;54;20503;-73
2023/10/22 00:44:48;;;;;;;;;;;12.30;99.90;;;;;;2615310;47;19959;-75
2023/10/22 00:47:18;;;;;;;;;;;12.30;99.90;;;;;;2616901;53;19943;-73
2023/10/22 00:49:48;;;;;;;;;;;12.30;99.90;;;;;;2616764;47;19970;-74
2023/10/22 00:52:17;;;;;;;;;;;12.20;99.90;;;;;;2615971;54;19939;-73
2023/10/22 00:54:48;;;;;;;;;;;12.20;99.90;;;;;;2615354;48;19950;-73
2023/10/22 00:57:17;;;;;;;;;;;12.10;99.90;;;;;;2617262;54;19951;-73
2023/10/22 00:59:51;;;;;;;;;;;12.00;99.90;;;;;;2616680;47;20492;-73
2023/10/22 01:02:21;;;;;;;;;;;12.00;99.90;;;;;;2617837;47;19942;-73
2023/10/22 01:04:51;;;;;;;;;;;12.00;99.90;;;;;;2616517;54;19986;-73
2023/10/22 01:07:21;;;;;;;;;;;12.10;99.90;;;;;;2618080;47;19947;-75
2023/10/22 01:09:51;;;;;;;;;;;12.00;99.90;;;;;;2617969;47;19951;-72
2023/10/22 01:12:21;;;;;;;;;;;11.90;99.90;;;;;;2616075;54;19947;-73
2023/10/22 01:14:53;;;;;;;;;;;11.90;99.90;;;;;;2615902;47;19942;-72
2023/10/22 01:17:23;;;;;;;;;;;11.80;99.90;;;;;;2617014;54;19993;-72
2023/10/22 01:19:53;;;;;;;;;;;11.80;99.90;;;;;;2615205;47;19947;-73
2023/10/22 01:22:23;;;;;;;;;;;11.70;99.90;;;;;;2617583;39;20401;-72
2023/10/22 01:24:55;;;;;;;;;;;11.60;99.90;;;;;;2616965;31;20453;-72
2023/10/22 01:27:25;;;;;;;;;;;11.60;99.90;;;;;;2616913;54;19947;-73
2023/10/22 01:29:54;;;;;;;;;;;11.60;99.90;;;;;;2618304;54;20429;-72
2023/10/22 01:32:24;;;;;;;;;;;11.60;99.90;;;;;;2617255;47;19959;-72
2023/10/22 01:34:54;;;;;;;;;;;11.60;99.90;;;;;;2616454;54;19962;-72
2023/10/22 01:37:23;;;;;;;;;;;11.60;99.90;;;;;;2619081;46;19993;-72
2023/10/22 01:39:57;;;;;;;;;;;11.50;99.90;;;;;;2617858;54;19954;-73
2023/10/22 01:42:27;;;;;;;;;;;11.50;99.90;;;;;;2616579;46;19935;-73
2023/10/22 01:44:57;;;;;;;;;;;11.40;99.90;;;;;;2616939;54;20205;-73
2023/10/22 01:47:26;;;;;;;;;;;11.40;99.90;;;;;;2617909;47;19951;-73
2023/10/22 01:49:56;;;;;;;;;;;11.30;99.90;;;;;;2618248;39;20337;-73
2023/10/22 01:52:26;;;;;;;;;;;11.30;99.90;;;;;;2618799;39;20421;-74
2023/10/22 01:54:58;;;;;;;;;;;11.30;99.90;;;;;;2615069;47;20445;-72
2023/10/22 01:57:28;;;;;;;;;;;11.30;99.90;;;;;;2615405;54;19946;-72
2023/10/22 01:59:57;;;;;;;;;;;11.30;99.90;;;;;;2617211;54;19950;-73
2023/10/22 02:02:27;;;;;;;;;;;11.30;99.90;;;;;;2617176;47;19934;-73
2023/10/22 02:04:57;;;;;;;;;;;11.30;99.90;;;;;;2616395;47;19990;-73
2023/10/22 02:07:26;;;;;;;;;;;11.30;99.90;;;;;;2617027;47;19950;-72
2023/10/22 02:09:59;;;;;;;;;;;11.30;99.90;;;;;;2616940;54;19943;-72
2023/10/22 02:12:29;;;;;;;;;;;11.30;99.90;;;;;;2617233;47;20453;-73
2023/10/22 02:14:59;;;;;;;;;;;11.40;99.90;;;;;;2616483;47;20042;-72
2023/10/22 02:17:31;;;;;;;;;;;11.40;99.90;;;;;;2617545;47;19951;-73
2023/10/22 02:20:01;;;;;;;;;;;11.40;99.90;;;;;;2616537;54;19946;-73
2023/10/22 02:22:30;;;;;;;;;;;11.50;99.90;;;;;;2618513;47;19958;-72
2023/10/22 02:25:03;;;;;;;;;;;11.50;99.90;;;;;;2615451;47;19973;-73
2023/10/22 02:27:32;;;;;;;;;;;11.50;99.90;;;;;;2616784;54;19935;-73
2023/10/22 02:30:02;;;;;;;;;;;11.50;99.90;;;;;;2616808;54;19951;-72
2023/10/22 02:32:32;;;;;;;;;;;11.50;99.90;;;;;;2616758;54;19946;-72
2023/10/22 02:35:03;;;;;;;;;;;11.60;99.90;;;;;;2614251;47;19945;-74
2023/10/22 02:37:32;;;;;;;;;;;11.60;99.90;;;;;;2616418;54;20466;-73
2023/10/22 02:40:06;;;;;;;;;;;11.70;99.90;;;;;;2615531;47;19941;-73
2023/10/22 02:42:35;;;;;;;;;;;11.70;99.90;;;;;;2615009;47;19946;-73
2023/10/22 02:45:05;;;;;;;;;;;11.70;99.90;;;;;;2615194;39;20345;-72
2023/10/22 02:47:35;;;;;;;;;;;11.80;99.90;;;;;;2618407;39;20376;-72
2023/10/22 02:50:05;;;;;;;;;;;11.80;99.90;;;;;;2616982;39;20392;-73
2023/10/22 02:52:35;;;;;;;;;;;11.80;99.90;;;;;;2616988;47;19939;-73
2023/10/22 02:55:08;;;;;;;;;;;11.80;99.90;;;;;;2615927;47;19942;-73
2023/10/22 02:57:37;;;;;;;;;;;11.80;99.90;;;;;;2616137;54;19958;-75
2023/10/22 03:00:10;;;;;;;;;;;11.80;99.90;;;;;;2615057;54;19939;-73
2023/10/22 03:02:57;;;;;;;;;;;11.90;99.90;;;;;;2616000;47;20468;-72
2023/10/22 03:05:27;;;;;;;;;;;11.90;99.90;;;;;;2615657;47;19947;-73
2023/10/22 03:07:57;;;;;;;;;;;12.00;99.90;;;;;;2614825;47;19949;-73
2023/10/22 03:10:29;;;;;;;;;;;12.00;99.90;;;;;;2615869;49;19941;-72
2023/10/22 03:12:59;;;;;;;;;;;12.00;99.90;;;;;;2614746;47;19987;-74
2023/10/22 03:15:30;;;;;;;;;;;12.10;99.90;;;;;;2615517;54;20041;-74
2023/10/22 03:18:00;;;;;;;;;;;12.10;99.90;;;;;;2615586;47;19938;-72
2023/10/22 03:20:32;;;;;;;;;;;12.10;99.90;;;;;;2616422;39;20357;-73
2023/10/22 03:23:05;;;;;;;;;;;12.20;99.90;;;;;;2614500;47;19941;-74
2023/10/22 03:25:39;;;;;;;;;;;12.10;99.90;;;;;;2615057;54;19946;-73
2023/10/22 03:28:08;;;;;;;;;;;12.00;99.90;;;;;;2613180;47;19946;-73
2023/10/22 03:30:39;;;;;;;;;;;11.90;99.90;;;;;;2615211;54;19947;-73
2023/10/22 03:33:10;;;;;;;;;;;11.80;99.90;;;;;;2614565;47;19947;-73
2023/10/22 03:35:40;;;;;;;;;;;11.80;99.90;;;;;;2614833;47;19946;-73
2023/10/22 03:38:10;;;;;;;;;;;11.80;99.90;;;;;;2614934;39;20046;-72
2023/10/22 03:40:42;;;;;;;;;;;11.90;99.90;;;;;;2616425;54;19951;-72
2023/10/22 03:43:12;;;;;;;;;;;11.90;99.90;;;;;;2615207;39;20376;-73
2023/10/22 03:45:41;;;;;;;;;;;12.00;99.90;;;;;;2615333;54;20066;-73
2023/10/22 03:48:11;;;;;;;;;;;12.00;99.90;;;;;;2615804;47;19953;-72
2023/10/22 03:50:41;;;;;;;;;;;12.00;99.90;;;;;;2616189;47;19946;-73
2023/10/22 03:53:11;;;;;;;;;;;12.10;99.90;;;;;;2614349;54;20569;-73
2023/10/22 03:55:43;;;;;;;;;;;12.10;99.90;;;;;;2615905;47;19947;-73
2023/10/22 03:58:13;;;;;;;;;;;12.20;99.90;;;;;;2615420;39;20360;-72
2023/10/22 04:00:42;;;;;;;;;;;12.20;99.90;;;;;;2615992;54;19946;-72
2023/10/22 04:03:12;;;;;;;;;;;12.30;99.90;;;;;;2615101;54;19942;-73
2023/10/22 04:05:42;;;;;;;;;;;12.30;99.90;;;;;;2614613;47;19938;-72
2023/10/22 04:08:11;;;;;;;;;;;12.40;99.90;;;;;;2616062;47;19994;-72
2023/10/22 04:10:49;;;;;;;;;;;12.40;99.90;;;;;;2616217;47;19953;-72
2023/10/22 04:13:18;;;;;;;;;;;12.40;99.90;;;;;;2615217;54;19939;-73
2023/10/22 04:15:48;;;;;;;;;;;12.50;99.90;;;;;;2615771;54;19962;-74
2023/10/22 04:18:19;;;;;;;;;;;12.50;99.90;;;;;;2615628;46;19978;-73
2023/10/22 04:20:50;;;;;;;;;;;12.60;99.90;;;;;;2615873;47;19946;-74
2023/10/22 04:23:20;;;;;;;;;;;12.70;99.90;;;;;;2616313;49;19953;-72
2023/10/22 04:25:54;;;;;;;;;;;12.70;99.90;;;;;;2616381;54;19957;-72
2023/10/22 04:28:24;;;;;;;;;;;12.70;99.90;;;;;;2615482;47;21915;-73
2023/10/22 04:30:56;;;;;;;;;;;12.70;99.90;;;;;;2615088;54;21359;-73
2023/10/22 04:33:26;;;;;;;;;;;12.80;99.90;;;;;;2615753;54;19947;-73
2023/10/22 04:35:56;;;;;;;;;;;12.80;99.90;;;;;;2615883;54;19934;-73
2023/10/22 04:38:26;;;;;;;;;;;12.80;99.90;;;;;;2615253;47;20076;-73
2023/10/22 04:40:58;;;;;;;;;;;12.80;99.90;;;;;;2615615;47;19950;-72
2023/10/22 04:43:30;;;;;;;;;;;12.90;99.90;;;;;;2614983;47;20037;-73
2023/10/22 04:46:00;;;;;;;;;;;12.90;99.90;;;;;;2615450;47;19950;-71
2023/10/22 04:48:31;;;;;;;;;;;12.90;99.90;;;;;;2615489;31;20438;-73
2023/10/22 04:51:06;;;;;;;;;;;12.90;99.90;;;;;;2616142;54;20053;-73
2023/10/22 04:53:36;;;;;;;;;;;13.00;99.90;;;;;;2616975;54;19938;-73
2023/10/22 04:56:08;;;;;;;;;;;13.00;99.90;;;;;;2614761;54;20030;-74
2023/10/22 04:58:38;;;;;;;;;;;13.00;99.90;;;;;;2615791;46;19939;-73
2023/10/22 05:01:08;;;;;;;;;;;13.10;99.90;;;;;;2615614;54;19935;-73
2023/10/22 05:03:37;;;;;;;;;;;13.00;99.90;;;;;;2615691;46;19953;-73
2023/10/22 05:06:08;;;;;;;;;;;13.00;99.90;;;;;;2615593;54;19949;-73
2023/10/22 05:08:40;;;;;;;;;;;13.10;99.90;;;;;;2615915;47;19946;-73
2023/10/22 05:11:16;;;;;;;;;;;13.10;99.90;;;;;;2615979;47;19950;-74
2023/10/22 05:13:46;;;;;;;;;;;13.10;99.90;;;;;;2614025;47;19950;-73
2023/10/22 05:16:16;;;;;;;;;;;13.10;99.90;;;;;;2615924;47;19969;-73
2023/10/22 05:18:46;;;;;;;;;;;13.10;99.90;;;;;;2615794;47;19978;-72
2023/10/22 05:21:16;;;;;;;;;;;13.20;99.90;;;;;;2616345;39;20633;-75
2023/10/22 05:23:45;;;;;;;;;;;13.20;99.90;;;;;;2615151;47;19939;-73
2023/10/22 05:26:17;;;;;;;;;;;13.20;99.90;;;;;;2614305;54;19943;-73
2023/10/22 05:28:47;;;;;;;;;;;13.20;99.90;;;;;;2615454;54;20459;-73
2023/10/22 05:31:18;;;;;;;;;;;13.20;99.90;;;;;;2613803;54;19950;-72
2023/10/22 05:33:48;;;;;;;;;;;13.20;99.90;;;;;;2614786;46;19946;-73
2023/10/22 05:36:18;;;;;;;;;;;13.20;99.90;;;;;;2616391;39;20344;-73
2023/10/22 05:38:49;;;;;;;;;;;13.30;99.90;;;;;;2615885;47;19938;-73
2023/10/22 05:41:23;;;;;;;;;;;13.30;99.90;;;;;;2615311;54;19935;-72
2023/10/22 05:43:55;;;;;;;;;;;13.30;99.90;;;;;;2614966;48;20465;-75
2023/10/22 05:46:25;;;;;;;;;;;13.30;99.90;;;;;;2616168;54;19946;-75
2023/10/22 05:48:55;;;;;;;;;;;13.30;99.90;;;;;;2615440;54;19942;-74
2023/10/22 05:51:26;;;;;;;;;;;13.30;99.90;;;;;;2616128;54;19946;-73
2023/10/22 05:53:56;;;;;;;;;;;13.30;99.90;;;;;;2614575;47;19958;-73
2023/10/22 05:56:29;;;;;;;;;;;13.30;99.90;;;;;;2615432;54;19946;-74
2023/10/22 05:59:04;;;;;;;;;;;13.30;99.90;;;;;;2614808;54;19969;-72
2023/10/22 06:01:38;;;;;;;;;;;13.30;99.90;;;;;;2615556;54;19954;-73
2023/10/22 06:04:08;;;;;;;;;;;13.30;99.90;;;;;;2615068;47;20495;-72
2023/10/22 06:06:39;;;;;;;;;;;13.30;99.90;;;;;;2615548;47;19939;-73
2023/10/22 06:09:10;;;;;;;;;;;13.30;99.90;;;;;;2614278;48;19935;-73
2023/10/22 06:11:42;;;;;;;;;;;13.30;99.90;;;;;;2616247;49;20492;-74
2023/10/22 06:14:12;;;;;;;;;;;13.30;99.90;;;;;;2614541;54;20449;-73
2023/10/22 06:16:45;;;;;;;;;;;13.30;99.90;;;;;;2616290;47;19961;-75
2023/10/22 06:19:15;;;;;;;;;;;13.30;99.90;;;;;;2614978;54;20480;-74
2023/10/22 06:21:46;;;;;;;;;;;13.30;99.90;;;;;;2617098;39;20353;-77
2023/10/22 06:24:16;;;;;;;;;;;13.30;99.90;;;;;;2615550;54;19978;-75
2023/10/22 06:26:48;;;;;;;;;;;13.30;99.90;;;;;;2616077;54;19938;-75
2023/10/22 06:29:18;;;;;;;;;;;13.40;99.90;;;;;;2615977;54;20062;-75
2023/10/22 06:31:48;;;;;;;;;;;13.40;99.90;;;;;;2614423;47;19946;-75
2023/10/22 06:34:17;;;;;;;;;;;13.40;99.90;;;;;;2614672;47;20465;-75
2023/10/22 06:36:47;;;;;;;;;;;13.40;99.90;;;;;;2615511;47;20018;-75
2023/10/22 06:39:17;;;;;;;;;;;13.50;99.90;;;;;;2613959;54;19941;-75
2023/10/22 06:41:49;;;;;;;;;;;13.40;99.90;;;;;;2614255;47;19955;-75
2023/10/22 06:46:46;;;;;;;;;;;13.50;99.90;;;;;;2616289;39;20354;-76
2023/10/22 06:49:16;;;;;;;;;;;13.50;99.90;;;;;;2614401;54;19988;-75
2023/10/22 06:51:45;;;;;;;;;;;13.50;99.90;;;;;;2614116;47;19946;-75
2023/10/22 06:54:15;;;;;;;;;;;13.50;99.90;;;;;;2615362;47;20002;-75
2023/10/22 06:56:45;;;;;;;;;;;13.50;99.90;;;;;;2615589;39;20607;-75
2023/10/22 06:59:17;;;;;;;;;;;13.50;99.90;;;;;;2615990;54;19953;-74
2023/10/22 07:01:47;;;;;;;;;;;13.50;99.90;;;;;;2616135;54;20426;-74
2023/10/22 07:04:17;;;;;;;;;;;13.50;99.90;;;;;;2613830;47;19953;-75
2023/10/22 07:06:47;;;;;;;;;;;13.60;99.90;;;;;;2615876;47;19935;-74
2023/10/22 07:09:17;;;;;;;;;;;13.60;99.90;;;;;;2614200;54;19946;-75
2023/10/22 07:11:47;;;;;;;;;;;13.50;99.90;;;;;;2615943;39;20450;-75
2023/10/22 07:14:19;;;;;;;;;;;12.40;99.90;;;;;;2614056;47;19950;-77
2023/10/22 07:16:49;;;;;;;;;;;13.50;99.90;;;;;;2616659;47;19953;-76
2023/10/22 07:19:18;;;;;;;;;;;13.50;99.90;;;;;;2614767;47;20467;-74
2023/10/22 07:21:48;;;;;;;;;;;13.50;99.90;;;;;;2615148;54;19938;-74
2023/10/22 07:24:18;;;;;;;;;;;13.50;99.90;;;;;;2614180;54;19950;-75
2023/10/22 07:26:47;;;;;;;;;;;13.60;99.90;;;;;;2616231;54;19946;-74
2023/10/22 07:29:20;;;;;;;;;;;13.50;99.90;;;;;;2616257;47;19934;-76
2023/10/22 07:31:51;;;;;;;;;;;13.60;99.90;;;;;;2615918;54;20061;-74
2023/10/22 07:34:21;;;;;;;;;;;13.60;99.90;;;;;;2614616;54;19934;-74
2023/10/22 07:36:51;;;;;;;;;;;13.60;99.90;;;;;;2615035;54;20025;-75
2023/10/22 07:39:21;;;;;;;;;;;13.50;99.90;;;;;;2613548;54;20049;-75
2023/10/22 07:42:00;;;;;;;;;;;13.60;99.90;;;;;;2615169;54;19981;-75
2023/10/22 07:44:34;;;;;;;;;;;13.60;99.90;;;;;;2614360;54;19934;-75
2023/10/22 07:47:04;;;;;;;;;;;13.60;99.90;;;;;;2614693;47;19951;-76
2023/10/22 07:49:34;;;;;;;;;;;13.70;99.90;;;;;;2614311;47;20039;-75
2023/10/22 07:52:03;;;;;;;;;;;13.70;99.90;;;;;;2615721;54;19947;-75
2023/10/22 07:54:33;;;;;;;;;;;13.70;99.90;;;;;;2614570;47;20005;-74
2023/10/22 07:57:05;;;;;;;;;;;13.70;99.90;;;;;;2616078;54;19935;-74
2023/10/22 07:59:37;;;;;;;;;;;13.70;99.90;;;;;;2613717;47;19947;-72
2023/10/22 08:02:07;;;;;;;;;;;13.80;99.90;;;;;;2613694;47;19974;-75
2023/10/22 08:04:37;;;;;;;;;;;13.70;99.90;;;;;;2615618;54;19955;-72
2023/10/22 08:07:07;;;;;;;;;;;13.70;99.90;;;;;;2616270;47;19941;-73
2023/10/22 08:09:37;;;;;;;;;;;13.70;99.90;;;;;;2615346;54;19953;-74
2023/10/22 08:12:07;;;;;;;;;;;13.80;99.90;;;;;;2616259;47;19943;-75
2023/10/22 08:14:39;;;;;;;;;;;13.80;99.90;;;;;;2612251;46;19966;-72
2023/10/22 08:17:09;;;;;;;;;;;13.80;99.90;;;;;;2594495;46;19946;-74
2023/10/22 08:19:39;;;;;;;;;;;13.80;99.90;;;;;;2597168;47;19953;-74
2023/10/22 08:22:08;;;;;;;;;;;13.80;99.90;;;;;;2598729;39;20354;-74
2023/10/22 08:24:38;;;;;;;;;;;13.50;99.90;;;;;;2596734;46;19957;-74
2023/10/22 08:27:11;;;;;;;;;;;13.90;99.90;;;;;;2597784;54;19950;-74
2023/10/22 08:29:44;;;;;;;;;;;13.80;99.90;;;;;;2594726;54;20991;-71
2023/10/22 08:32:13;;;;;;;;;;;13.90;99.90;;;;;;2596790;54;20780;-72
2023/10/22 08:34:43;;;;;;;;;;;13.30;99.90;;;;;;2596437;47;19935;-72
2023/10/22 08:37:13;;;;;;;;;;;13.80;99.90;;;;;;2599123;54;19947;-72
2023/10/22 08:39:42;;;;;;;;;;;13.90;99.90;;;;;;2598500;54;20464;-72
2023/10/22 08:42:19;;;;;;;;;;;13.80;99.90;;;;;;2597513;54;19954;-73
2023/10/22 08:44:52;;;;;;;;;;;13.90;99.90;;;;;;2597782;47;19952;-75
2023/10/22 08:47:22;;;;;;;;;;;13.90;99.90;;;;;;2597449;54;19958;-72
2023/10/22 08:49:52;;;;;;;;;;;13.90;99.90;;;;;;2596011;47;19947;-72
2023/10/22 08:52:22;;;;;;;;;;;14.00;99.90;;;;;;2598032;54;19957;-74
2023/10/22 08:54:52;;;;;;;;;;;14.20;99.90;;;;;;2598510;47;19950;-72
2023/10/22 08:57:23;;;;;;;;;;;14.00;99.90;;;;;;2597887;47;19950;-73
2023/10/22 08:59:55;;;;;;;;;;;13.90;99.90;;;;;;2597920;47;19963;-73
2023/10/22 09:02:26;;;;;;;;;;;14.10;99.90;;;;;;2598302;54;19993;-74
2023/10/22 09:04:57;;;;;;;;;;;12.80;99.90;;;;;;2596688;54;19946;-72
2023/10/22 09:07:41;;;;;;;;;;;14.10;99.90;;;;;;2596861;54;20148;-72
2023/10/22 09:10:25;;;;;;;;;;;14.10;99.90;;;;;;2598321;47;19958;-76
2023/10/22 09:12:55;;;;;;;;;;;14.20;99.90;;;;;;2596576;47;19951;-74
2023/10/22 09:15:27;;;;;;;;;;;14.20;99.90;;;;;;2597906;54;19969;-73
2023/10/22 09:18:04;;;;;;;;;;;14.20;99.90;;;;;;2598129;47;19946;-72
2023/10/22 09:20:34;;;;;;;;;;;14.30;99.90;;;;;;2594528;47;20457;-73
2023/10/22 09:23:14;;;;;;;;;;;14.30;99.90;;;;;;2597754;54;19958;-72
2023/10/22 09:25:44;;;;;;;;;;;14.40;99.90;;;;;;2615134;54;19947;-74
2023/10/22 09:28:15;;;;;;;;;;;14.40;99.90;;;;;;2613948;39;20329;-74
2023/10/22 09:30:48;;;;;;;;;;;14.40;99.90;;;;;;2615040;54;19965;-73
2023/10/22 09:33:18;;;;;;;;;;;14.40;99.90;;;;;;2614047;47;19957;-72
2023/10/22 09:36:00;;;;;;;;;;;14.40;99.90;;;;;;2614178;47;19973;-73
2023/10/22 09:38:43;;;;;;;;;;;14.50;99.90;;;;;;2614141;54;19957;-73
2023/10/22 09:41:14;;;;;;;;;;;14.50;99.90;;;;;;2614257;47;19939;-73
2023/10/22 09:43:44;;;;;;;;;;;14.50;99.90;;;;;;2614131;54;20071;-72
2023/10/22 09:46:18;;;;;;;;;;;14.50;99.90;;;;;;2614400;47;19946;-74
2023/10/22 09:48:49;;;;;;;;;;;14.50;99.90;;;;;;2614002;47;19939;-73
2023/10/22 09:51:19;;;;;;;;;;;14.60;99.90;;;;;;2614497;54;19939;-73
2023/10/22 09:53:54;;;;;;;;;;;15.20;99.90;;;;;;2614920;46;20003;-73
2023/10/22 09:56:25;;;;;;;;;;;14.60;99.90;;;;;;2614786;52;19947;-73
2023/10/22 09:58:59;;;;;;;;;;;14.60;99.90;;;;;;2614836;54;19951;-74
2023/10/22 10:01:32;;;;;;;;;;;14.60;99.90;;;;;;2614310;47;20433;-74
2023/10/22 10:04:03;;;;;;;;;;;14.70;99.90;;;;;;2612705;54;19950;-71
2023/10/22 10:06:33;;;;;;;;;;;14.70;99.90;;;;;;2614171;47;20453;-72
2023/10/22 10:09:05;;;;;;;;;;;14.70;99.90;;;;;;2614569;47;20018;-72
2023/10/22 10:11:35;;;;;;;;;;;14.70;99.90;;;;;;2614769;54;20615;-73
2023/10/22 10:14:13;;;;;;;;;;;14.80;99.90;;;;;;2614437;54;19946;-74
2023/10/22 10:17:00;;;;;;;;;;;14.80;99.90;;;;;;2614134;47;19938;-73
2023/10/22 10:19:30;;;;;;;;;;;14.80;99.90;;;;;;2613094;54;19947;-73
2023/10/22 10:22:00;;;;;;;;;;;13.20;99.90;;;;;;2613796;47;19953;-73
2023/10/22 10:24:30;;;;;;;;;;;14.80;99.90;;;;;;2614113;47;19951;-73
2023/10/22 10:27:15;;;;;;;;;;;14.80;99.90;;;;;;2614641;39;20387;-74
2023/10/22 10:30:04;;;;;;;;;;;14.80;99.90;;;;;;2614017;54;19988;-73
2023/10/22 10:32:43;;;;;;;;;;;14.80;99.90;;;;;;2613779;46;20474;-75
2023/10/22 10:35:28;;;;;;;;;;;14.80;99.90;;;;;;2614723;47;19973;-73
2023/10/22 10:38:13;;;;;;;;;;;14.80;99.90;;;;;;2613279;54;19973;-75
2023/10/22 10:40:44;;;;;;;;;;;14.80;99.90;;;;;;2614708;39;20334;-74
2023/10/22 10:43:13;;;;;;;;;;;14.90;99.90;;;;;;2614651;47;20457;-72
2023/10/22 10:45:58;;;;;;;;;;;14.90;99.90;;;;;;2613689;54;19946;-73
2023/10/22 10:48:42;;;;;;;;;;;14.90;99.90;;;;;;2613568;39;20345;-74
2023/10/22 10:51:22;;;;;;;;;;;14.90;99.90;;;;;;2614932;54;19939;-74
2023/10/22 10:54:07;;;;;;;;;;;15.00;99.90;;;;;;2613894;47;19977;-75
2023/10/22 10:56:46;;;;;;;;;;;15.00;99.90;;;;;;2614663;54;19947;-74
2023/10/22 10:59:26;;;;;;;;;;;15.00;99.90;;;;;;2614875;48;19954;-75
2023/10/22 11:02:00;;;;;;;;;;;15.10;99.90;;;;;;2614691;54;19946;-74
2023/10/22 11:04:29;;;;;;;;;;;15.10;99.90;;;;;;2611330;54;20410;-74
2023/10/22 11:07:02;;;;;;;;;;;15.20;99.90;;;;;;2612421;54;19957;-74
2023/10/22 11:09:52;;;;;;;;;;;15.20;99.90;;;;;;2616107;54;19978;-75
2023/10/22 11:12:22;;;;;;;;;;;15.20;99.90;;;;;;2613188;53;20426;-74
2023/10/22 11:14:56;;;;;;;;;;;15.20;99.90;;;;;;2614803;47;20556;-75
2023/10/22 11:17:26;;;;;;;;;;;15.20;99.90;;;;;;2615153;54;19939;-76
2023/10/22 11:19:56;;;;;;;;;;;15.10;99.90;;;;;;2614012;47;19939;-74
2023/10/22 11:22:29;;;;;;;;;;;15.10;99.90;;;;;;2613733;47;19965;-73
2023/10/22 11:25:00;;;;;;;;;;;15.10;99.90;;;;;;2614997;54;19946;-73
2023/10/22 11:27:30;;;;;;;;;;;15.10;99.90;;;;;;2614850;54;19947;-75
2023/10/22 11:30:01;;;;;;;;;;;15.10;99.90;;;;;;2615684;31;20421;-74
2023/10/22 11:32:31;;;;;;;;;;;15.10;99.90;;;;;;2613203;54;19946;-73
2023/10/22 11:35:02;;;;;;;;;;;15.20;99.90;;;;;;2613492;39;20101;-75
2023/10/22 11:37:39;;;;;;;;;;;15.20;99.90;;;;;;2615039;47;19946;-74
2023/10/22 11:40:24;;;;;;;;;;;15.20;99.90;;;;;;2615114;47;20030;-73
2023/10/22 11:42:53;;;;;;;;;;;15.20;99.90;;;;;;2615412;47;20050;-74
2023/10/22 11:45:23;;;;;;;;;;;15.30;99.90;;;;;;2615500;54;19947;-76
2023/10/22 11:47:52;;;;;;;;;;;15.30;99.90;;;;;;2615099;47;19959;-75
2023/10/22 11:50:35;;;;;;;;;;;15.30;99.90;;;;;;2614159;54;19939;-74
2023/10/22 11:53:08;;;;;;;;;;;15.30;99.90;;;;;;2615120;47;19939;-76
2023/10/22 11:55:41;;;;;;;;;;;15.30;99.90;;;;;;2614550;54;19946;-76
2023/10/22 11:58:18;;;;;;;;;;;15.30;99.90;;;;;;2614038;54;20402;-75
2023/10/22 12:00:48;;;;;;;;;;;15.30;99.90;;;;;;2614695;54;19981;-77
2023/10/22 12:03:18;;;;;;;;;;;15.30;99.90;;;;;;2615888;39;20380;-75
2023/10/22 12:05:48;;;;;;;;;;;15.30;99.90;;;;;;2614045;54;19939;-75
2023/10/22 12:08:22;;;;;;;;;;;15.30;99.90;;;;;;2614564;47;19954;-77
2023/10/22 12:10:52;;;;;;;;;;;15.40;99.90;;;;;;2615722;54;19977;-76
2023/10/22 12:13:22;;;;;;;;;;;15.40;99.90;;;;;;2615330;54;19970;-75
2023/10/22 12:15:51;;;;;;;;;;;15.50;99.90;;;;;;2614933;54;19946;-74
2023/10/22 12:18:23;;;;;;;;;;;15.60;99.90;;;;;;2614933;47;20075;-70
2023/10/22 12:20:53;;;;;;;;;;;15.60;99.90;;;;;;2614603;54;20535;-70
2023/10/22 12:23:25;;;;;;;;;;;15.60;99.90;;;;;;2615479;54;20463;-71
2023/10/22 12:26:10;;;;;;;;;;;15.70;99.90;;;;;;2613943;54;20405;-72
2023/10/22 12:28:39;;;;;;;;;;;15.70;99.90;;;;;;2615102;39;20346;-73
2023/10/22 12:31:10;;;;;;;;;;;15.70;99.90;;;;;;2615623;39;20377;-74
2023/10/22 12:33:40;;;;;;;;;;;15.70;99.90;;;;;;2614366;47;19970;-72
2023/10/22 12:36:10;;;;;;;;;;;15.70;99.90;;;;;;2614557;39;20322;-74
2023/10/22 12:38:42;;;;;;;;;;;15.80;99.90;;;;;;2615472;39;20342;-73
2023/10/22 12:41:12;;;;;;;;;;;15.80;99.90;;;;;;2615801;47;19946;-73
2023/10/22 12:43:41;;;;;;;;;;;15.80;99.90;;;;;;2614667;54;19951;-72
2023/10/22 12:46:11;;;;;;;;;;;15.80;99.90;;;;;;2613927;54;20405;-72
2023/10/22 12:48:41;;;;;;;;;;;15.80;99.90;;;;;;2612437;39;20002;-72
2023/10/22 12:51:11;;;;;;;;;;;15.80;99.90;;;;;;2615914;47;20445;-74
2023/10/22 12:53:43;;;;;;;;;;;15.80;99.90;;;;;;2617604;54;19947;-72
2023/10/22 12:56:13;;;;;;;;;;;15.80;99.90;;;;;;2614212;54;19986;-75
2023/10/22 12:58:43;;;;;;;;;;;15.90;99.90;;;;;;2613717;54;19947;-76
2023/10/22 13:01:15;;;;;;;;;;;15.90;99.90;;;;;;2613986;47;19954;-75
2023/10/22 13:03:44;;;;;;;;;;;15.90;99.90;;;;;;2616429;47;19946;-76
2023/10/22 13:06:14;;;;;;;;;;;16.00;99.90;;;;;;2616104;47;19946;-76
2023/10/22 13:08:46;;;;;;;;;;;16.00;99.90;;;;;;2615906;54;19942;-75
2023/10/22 13:11:20;;;;;;;;;;;16.00;99.90;;;;;;2616687;54;19958;-76
2023/10/22 13:13:51;;;;;;;;;;;15.90;99.90;;;;;;2616726;54;19942;-75
2023/10/22 13:16:21;;;;;;;;;;;15.90;99.90;;;;;;2614078;47;19951;-76
2023/10/22 13:18:51;;;;;;;;;;;15.90;99.90;;;;;;2615293;47;19954;-75
2023/10/22 13:21:20;;;;;;;;;;;15.90;99.90;;;;;;2616386;46;19953;-74
2023/10/22 13:23:53;;;;;;;;;;;15.90;99.90;;;;;;2615169;39;20412;-74
2023/10/22 13:26:22;;;;;;;;;;;16.00;99.90;;;;;;2615412;47;19947;-74
2023/10/22 13:28:52;;;;;;;;;;;15.90;99.90;;;;;;2614917;54;19943;-74
2023/10/22 13:31:22;;;;;;;;;;;15.90;99.90;;;;;;2616578;46;20452;-75
2023/10/22 13:33:51;;;;;;;;;;;15.90;99.90;;;;;;2614906;54;19947;-76
2023/10/22 13:36:21;;;;;;;;;;;15.70;99.90;;;;;;2614459;47;19947;-74
2023/10/22 13:38:53;;;;;;;;;;;15.80;99.90;;;;;;2615433;54;19977;-75
2023/10/22 13:41:23;;;;;;;;;;;15.80;99.90;;;;;;2614996;47;19950;-73
2023/10/22 13:43:53;;;;;;;;;;;15.80;99.90;;;;;;2613988;54;19945;-75
2023/10/22 13:46:22;;;;;;;;;;;15.80;99.90;;;;;;2614715;47;19947;-74
2023/10/22 13:48:52;;;;;;;;;;;15.80;99.90;;;;;;2614391;39;20384;-74
2023/10/22 13:51:22;;;;;;;;;;;15.80;99.90;;;;;;2614208;54;19957;-74
2023/10/22 13:53:56;;;;;;;;;;;15.70;99.90;;;;;;2614896;54;19945;-77
2023/10/22 13:56:26;;;;;;;;;;;15.70;99.90;;;;;;2614824;54;19939;-75
2023/10/22 13:58:55;;;;;;;;;;;15.70;99.90;;;;;;2614226;54;19942;-73
2023/10/22 14:01:25;;;;;;;;;;;15.60;99.90;;;;;;2614967;54;20011;-72
2023/10/22 14:03:55;;;;;;;;;;;15.60;99.90;;;;;;2613489;54;19947;-74
2023/10/22 14:06:25;;;;;;;;;;;15.60;99.90;;;;;;2614098;54;19939;-73
2023/10/22 14:08:57;;;;;;;;;;;15.50;99.90;;;;;;2614336;54;19950;-73
2023/10/22 14:11:26;;;;;;;;;;;15.50;99.90;;;;;;2613765;54;19961;-74
2023/10/22 14:13:57;;;;;;;;;;;15.50;99.90;;;;;;2613523;54;19954;-75
2023/10/22 14:16:27;;;;;;;;;;;15.50;99.90;;;;;;2615227;46;19962;-73
2023/10/22 14:18:57;;;;;;;;;;;15.50;99.90;;;;;;2613976;47;19998;-73
2023/10/22 14:21:26;;;;;;;;;;;15.40;99.90;;;;;;2615329;39;20377;-73
2023/10/22 14:23:59;;;;;;;;;;;15.40;99.90;;;;;;2614195;47;19950;-73
2023/10/22 14:26:31;;;;;;;;;;;15.50;99.90;;;;;;2614973;47;20025;-65
2023/10/22 14:29:00;;;;;;;;;;;15.40;99.90;;;;;;2614770;54;19957;-64
2023/10/22 14:31:30;;;;;;;;;;;15.40;99.90;;;;;;2615438;54;19935;-64
2023/10/22 14:34:00;;;;;;;;;;;15.40;99.90;;;;;;2614176;54;20000;-63
2023/10/22 14:36:29;;;;;;;;;;;15.40;99.90;;;;;;2615134;54;20465;-67
2023/10/22 14:39:02;;;;;;;;;;;15.40;99.90;;;;;;2617817;54;19945;-77
2023/10/22 14:41:31;;;;;;;;;;;15.30;99.90;;;;;;2616830;54;19951;-77
2023/10/22 14:44:03;;;;;;;;;;;15.30;99.90;;;;;;2615505;47;21812;-77